Time;durP1;ratioP1;P1;durP2;ratioP2;P2;SDS_P1;SDS_P2;PMS_P1;PMS_P2;Temp;Humidity;BMP_temperature;BMP_pressure;BME280_temperature;BME280_humidity;BME280_pressure;Samples;Min_cycle;Max_cycle;Signal;HPM_P1;HPM_P2
2023/07/06 00:00:29;;;;;;;13.73;9.52;;;;;;;13.63;96.00;101501.78;5016348;28;20057;-62
2023/07/06 00:02:55;;;;;;;13.50;9.60;;;;;;;13.62;95.58;101502.81;5021489;28;20076;-62
2023/07/06 00:05:22;;;;;;;14.90;9.70;;;;;;;13.60;95.75;101501.31;5027084;28;20476;-62
2023/07/06 00:07:47;;;;;;;19.58;9.93;;;;;;;13.58;96.08;101501.47;5021355;28;20113;-63
2023/07/06 00:10:13;;;;;;;17.05;9.02;;;;;;;13.54;95.79;101500.16;5023787;28;20104;-62
2023/07/06 00:12:38;;;;;;;15.65;9.65;;;;;;;13.52;96.10;101496.81;5024919;28;20022;-62
2023/07/06 00:15:04;;;;;;;18.98;9.43;;;;;;;13.50;96.21;101498.84;5022647;28;20434;-62
2023/07/06 00:17:29;;;;;;;14.15;9.30;;;;;;;13.47;96.12;101498.34;5019991;28;20028;-62
2023/07/06 00:19:54;;;;;;;11.85;8.95;;;;;;;13.42;96.12;101500.72;5025749;28;20033;-63
2023/07/06 00:22:19;;;;;;;16.48;8.95;;;;;;;13.40;96.00;101497.38;5024082;28;20021;-62
2023/07/06 00:24:46;;;;;;;14.45;8.38;;;;;;;13.37;96.25;101503.91;5025981;28;20511;-62
2023/07/06 00:27:15;;;;;;;15.35;8.15;;;;;;;13.36;95.95;101504.06;5025083;28;20104;-62
2023/07/06 00:29:55;;;;;;;16.63;8.00;;;;;;;13.35;95.58;101505.09;5024526;28;20522;-62
2023/07/06 00:32:27;;;;;;;14.13;8.70;;;;;;;13.31;96.01;101505.44;5023778;28;20017;-62
2023/07/06 00:34:57;;;;;;;14.88;7.85;;;;;;;13.29;95.58;101510.06;5020610;28;20121;-63
2023/07/06 00:37:22;;;;;;;12.95;7.22;;;;;;;13.27;95.43;101504.09;5023751;28;20037;-63
2023/07/06 00:39:49;;;;;;;12.60;7.18;;;;;;;13.25;95.33;101507.94;5019482;28;20034;-62
2023/07/06 00:42:17;;;;;;;12.85;7.20;;;;;;;13.22;95.14;101510.94;5020478;28;20018;-62
2023/07/06 00:44:59;;;;;;;15.90;7.20;;;;;;;13.21;95.41;101509.28;5023169;28;20459;-62
2023/07/06 00:47:36;;;;;;;12.05;6.78;;;;;;;13.19;95.08;101512.13;5020237;28;20025;-62
2023/07/06 00:50:15;;;;;;;11.30;6.60;;;;;;;13.16;94.96;101507.09;5016531;28;20025;-62
2023/07/06 00:52:48;;;;;;;14.57;7.20;;;;;;;13.16;94.77;101509.75;5022849;28;20510;-62
2023/07/06 00:55:15;;;;;;;13.70;6.50;;;;;;;13.11;94.49;101500.63;5022341;28;20117;-62
2023/07/06 00:57:42;;;;;;;9.75;6.90;;;;;;;13.13;94.21;101507.44;5018212;28;20041;-62
2023/07/06 01:00:08;;;;;;;10.85;6.32;;;;;;;13.10;94.22;101505.13;5014243;28;20034;-62
2023/07/06 01:02:38;;;;;;;10.25;6.10;;;;;;;13.11;94.50;101511.28;5024091;28;20040;-63
2023/07/06 01:05:05;;;;;;;9.68;6.57;;;;;;;13.10;93.85;101502.47;5024443;28;20032;-62
2023/07/06 01:07:32;;;;;;;12.93;6.60;;;;;;;13.08;93.98;101504.47;5021850;28;20021;-62
2023/07/06 01:09:58;;;;;;;9.40;6.30;;;;;;;13.06;93.75;101501.13;5024511;28;20025;-63
2023/07/06 01:12:24;;;;;;;14.13;6.18;;;;;;;13.02;93.45;101500.66;5028129;28;20076;-62
2023/07/06 01:14:51;;;;;;;9.73;5.68;;;;;;;13.00;93.79;101504.47;5020678;28;20033;-62
2023/07/06 01:17:29;;;;;;;10.70;5.75;;;;;;;12.98;93.56;101499.28;5019871;28;20629;-62
2023/07/06 01:20:17;;;;;;;11.63;5.85;;;;;;;12.95;93.67;101504.97;5028210;28;20030;-62
2023/07/06 01:23:11;;;;;;;13.10;6.18;;;;;;;12.92;93.14;101507.97;5023190;28;20059;-62
2023/07/06 01:26:00;;;;;;;11.45;5.75;;;;;;;12.88;93.39;101511.16;5026060;28;20565;-63
2023/07/06 01:28:50;;;;;;;13.80;6.22;;;;;;;12.86;92.85;101505.16;5022499;28;20041;-63
2023/07/06 01:31:30;;;;;;;13.00;5.38;;;;;;;12.82;92.63;101504.69;5023600;28;20041;-62
2023/07/06 01:34:05;;;;;;;14.38;5.63;;;;;;;12.74;92.86;101502.03;5024830;28;20057;-62
2023/07/06 01:36:43;;;;;;;11.35;5.25;;;;;;;12.72;92.90;101506.66;5018498;28;20026;-62
2023/07/06 01:39:18;;;;;;;14.25;5.53;;;;;;;12.69;92.43;101499.00;5022000;28;20040;-63
2023/07/06 01:41:45;;;;;;;13.35;5.75;;;;;;;12.64;92.76;101504.84;5021767;28;20040;-62
2023/07/06 01:44:13;;;;;;;11.93;4.90;;;;;;;12.61;92.43;101505.19;5022295;28;20029;-63
2023/07/06 01:46:46;;;;;;;11.73;5.15;;;;;;;12.60;92.54;101505.34;5017871;28;20048;-62
2023/07/06 01:49:12;;;;;;;10.55;5.47;;;;;;;12.58;92.92;101497.53;5028715;28;20083;-63
2023/07/06 01:52:03;;;;;;;11.40;5.38;;;;;;;12.58;92.72;101508.19;5022771;28;20034;-63
2023/07/06 01:54:37;;;;;;;10.05;5.43;;;;;;;12.56;92.37;101509.34;5025762;28;20104;-62
2023/07/06 01:57:14;;;;;;;10.43;5.10;;;;;;;12.52;92.76;101514.19;5024566;28;20075;-62
2023/07/06 01:59:46;;;;;;;12.45;5.57;;;;;;;12.49;92.45;101513.69;5019441;28;20063;-63
2023/07/06 02:02:11;;;;;;;11.35;5.13;;;;;;;12.53;92.47;101512.38;5021591;28;20106;-62
2023/07/06 02:04:43;;;;;;;9.55;4.70;;;;;;;12.49;92.37;101506.53;5029345;28;20487;-62
2023/07/06 02:07:11;;;;;;;14.18;5.00;;;;;;;12.50;92.22;101518.84;5019843;28;20017;-62
2023/07/06 02:09:47;;;;;;;11.55;4.93;;;;;;;12.45;92.49;101523.84;5022304;28;20048;-62
2023/07/06 02:12:13;;;;;;;9.30;5.00;;;;;;;12.41;92.33;101512.66;5025013;28;20511;-63
2023/07/06 02:14:40;;;;;;;12.60;5.40;;;;;;;12.37;92.47;101513.19;5025021;28;20040;-62
2023/07/06 02:17:06;;;;;;;11.98;5.35;;;;;;;12.35;92.32;101509.84;5021900;28;20032;-62
2023/07/06 02:19:33;;;;;;;9.80;5.07;;;;;;;12.33;92.48;101514.50;5024989;28;20029;-62
2023/07/06 02:21:58;;;;;;;8.60;5.15;;;;;;;12.28;92.40;101511.50;5024036;28;20025;-63
2023/07/06 02:24:23;;;;;;;11.38;5.10;;;;;;;12.24;92.28;101510.19;5025165;28;20116;-62
2023/07/06 02:26:49;;;;;;;10.82;5.50;;;;;;;12.19;92.52;101504.53;5019671;28;20539;-62
2023/07/06 02:29:14;;;;;;;9.95;4.40;;;;;;;12.17;92.74;101511.84;5026672;28;20052;-62
2023/07/06 02:31:40;;;;;;;13.25;4.75;;;;;;;12.14;92.74;101501.50;5023451;28;20044;-62
2023/07/06 02:34:05;;;;;;;13.55;4.75;;;;;;;12.14;92.42;101498.84;5025503;28;21010;-62
2023/07/06 02:36:31;;;;;;;12.07;5.13;;;;;;;12.11;93.02;101497.34;5024414;28;20062;-62
2023/07/06 02:38:57;;;;;;;9.32;4.28;;;;;;;12.09;93.32;101494.84;5023735;28;20546;-62
2023/07/06 02:41:22;;;;;;;11.65;4.78;;;;;;;12.06;92.93;101494.34;5022842;28;20029;-62
2023/07/06 02:43:47;;;;;;;11.20;4.53;;;;;;;12.05;93.26;101496.16;5026884;28;20185;-62
2023/07/06 02:46:19;;;;;;;12.38;5.38;;;;;;;12.03;93.07;101506.16;5017441;28;20028;-62
2023/07/06 02:48:45;;;;;;;8.95;4.45;;;;;;;12.02;93.08;101508.97;5022615;28;20029;-63
2023/07/06 02:51:10;;;;;;;10.32;4.70;;;;;;;12.02;93.37;101504.47;5023568;28;20041;-62
2023/07/06 02:53:35;;;;;;;12.05;4.82;;;;;;;12.02;93.70;101515.13;5026648;28;20032;-62
2023/07/06 02:56:01;;;;;;;14.52;4.75;;;;;;;12.03;93.96;101511.47;5026597;28;20041;-63
2023/07/06 02:58:27;;;;;;;14.55;4.78;;;;;;;12.05;93.98;101506.81;5021714;28;20030;-62
2023/07/06 03:00:52;;;;;;;10.32;4.47;;;;;;;12.06;94.03;101508.47;5018337;28;20100;-62
2023/07/06 03:03:17;;;;;;;14.02;5.28;;;;;;;12.07;93.79;101501.31;5025388;28;20025;-62
2023/07/06 03:05:44;;;;;;;11.10;5.25;;;;;;;12.07;93.76;101504.81;5028352;28;20017;-62
2023/07/06 03:08:10;;;;;;;11.95;4.85;;;;;;;12.10;94.17;101515.13;5027367;28;20013;-62
2023/07/06 03:10:35;;;;;;;8.30;4.55;;;;;;;12.14;94.10;101509.47;5019579;28;20030;-62
2023/07/06 03:13:00;;;;;;;13.90;4.78;;;;;;;12.16;93.92;101507.53;5023791;28;20139;-62
2023/07/06 03:15:25;;;;;;;9.82;4.35;;;;;;;12.18;94.30;101516.16;5021579;28;20033;-62
2023/07/06 03:17:51;;;;;;;11.60;4.75;;;;;;;12.17;94.29;101511.84;5023449;28;20017;-62
2023/07/06 03:20:21;;;;;;;12.18;4.63;;;;;;;12.17;94.14;101519.84;5024179;28;20449;-63
2023/07/06 03:22:51;;;;;;;12.02;4.78;;;;;;;12.17;94.23;101512.69;5018025;28;20021;-62
2023/07/06 03:25:18;;;;;;;13.27;4.57;;;;;;;12.17;94.29;101520.66;5021696;28;20550;-62
2023/07/06 03:27:46;;;;;;;13.70;4.75;;;;;;;12.20;94.20;101525.66;5016292;28;20021;-62
2023/07/06 03:30:14;;;;;;;7.97;4.50;;;;;;;12.19;94.39;101518.66;5021129;28;20447;-62
2023/07/06 03:32:39;;;;;;;11.23;4.90;;;;;;;12.21;94.17;101524.66;5020509;28;20017;-63
2023/07/06 03:35:06;;;;;;;14.43;4.68;;;;;;;12.22;94.51;101530.81;5027178;28;20037;-63
2023/07/06 03:37:31;;;;;;;10.05;4.82;;;;;;;12.20;94.21;101527.50;5022337;28;20025;-62
2023/07/06 03:39:56;;;;;;;12.55;4.68;;;;;;;12.22;94.56;101533.47;5028122;28;20067;-62
2023/07/06 03:42:23;;;;;;;11.70;4.85;;;;;;;12.22;94.38;101530.81;5024744;28;20017;-62
2023/07/06 03:44:55;;;;;;;11.13;4.63;;;;;;;12.23;94.81;101530.66;5027552;28;20044;-62
2023/07/06 03:47:21;;;;;;;13.80;4.68;;;;;;;12.23;94.59;101533.31;5025103;28;20025;-62
2023/07/06 03:49:47;;;;;;;14.57;5.00;;;;;;;12.23;94.91;101529.81;5021426;28;20414;-62
2023/07/06 03:52:16;;;;;;;11.00;5.13;;;;;;;12.24;95.02;101545.63;5022245;28;20025;-62
2023/07/06 03:54:42;;;;;;;13.55;5.07;;;;;;;12.25;94.71;101538.47;5027397;28;20013;-62
2023/07/06 03:57:07;;;;;;;11.90;4.93;;;;;;;12.28;94.71;101548.81;5021839;28;20553;-62
2023/07/06 03:59:33;;;;;;;13.00;4.90;;;;;;;12.22;94.90;101538.81;5025392;28;20036;-63
2023/07/06 04:01:59;;;;;;;12.55;5.60;;;;;;;12.29;95.04;101545.13;5023253;28;20036;-63
2023/07/06 04:04:28;;;;;;;14.00;5.18;;;;;;;12.30;95.32;101557.47;5024990;28;20026;-62
2023/07/06 04:06:56;;;;;;;13.70;5.03;;;;;;;12.31;95.11;101551.97;5021670;28;20067;-63
2023/07/06 04:09:25;;;;;;;13.88;4.85;;;;;;;12.28;95.19;101557.63;5022711;28;20025;-62
2023/07/06 04:11:53;;;;;;;11.95;5.05;;;;;;;12.31;95.28;101553.78;5016446;28;20025;-62
2023/07/06 04:14:24;;;;;;;13.00;5.25;;;;;;;12.32;95.12;101550.13;5024341;28;20155;-63
2023/07/06 04:16:51;;;;;;;13.82;5.10;;;;;;;12.32;95.19;101556.28;5026618;28;20083;-62
2023/07/06 04:19:16;;;;;;;15.98;4.95;;;;;;;12.32;95.53;101555.47;5026532;28;20032;-62
2023/07/06 04:21:41;;;;;;;13.13;5.13;;;;;;;12.31;95.40;101559.13;5025010;28;20026;-62
2023/07/06 04:24:07;;;;;;;8.30;4.60;;;;;;;12.31;95.38;101565.28;5025432;28;20076;-62
2023/07/06 04:26:32;;;;;;;13.15;5.30;;;;;;;12.30;95.23;101549.47;5023289;28;20024;-62
2023/07/06 04:28:58;;;;;;;12.55;5.20;;;;;;;12.31;95.19;101553.78;5019062;28;20022;-62
2023/07/06 04:31:23;;;;;;;16.00;5.93;;;;;;;12.32;95.68;101555.47;5023641;28;20026;-62
2023/07/06 04:33:49;;;;;;;13.18;5.53;;;;;;;12.31;95.46;101559.94;5025480;28;20069;-62
2023/07/06 04:36:17;;;;;;;20.08;5.65;;;;;;;12.35;95.78;101563.13;5027570;28;20021;-62
2023/07/06 04:38:43;;;;;;;12.05;5.38;;;;;;;12.37;95.89;101563.78;5030169;28;20028;-62
2023/07/06 04:41:09;;;;;;;12.20;5.85;;;;;;;12.37;95.67;101563.78;5028521;28;20104;-63
2023/07/06 04:43:35;;;;;;;19.33;6.07;;;;;;;12.38;95.65;101566.28;5028690;28;20021;-62
2023/07/06 04:46:00;;;;;;;16.80;6.30;;;;;;;12.39;95.74;101569.78;5029551;28;20624;-63
2023/07/06 04:48:26;;;;;;;17.40;6.10;;;;;;;12.43;95.85;101571.09;5027851;28;20117;-62
2023/07/06 04:50:53;;;;;;;16.40;6.22;;;;;;;12.45;95.96;101577.13;5032482;28;20053;-62
2023/07/06 04:53:19;;;;;;;18.45;6.53;;;;;;;12.49;96.43;101580.31;5028583;28;20017;-63
2023/07/06 04:55:45;;;;;;;18.02;7.30;;;;;;;12.51;96.27;101573.81;5014894;28;20156;-62
2023/07/06 04:58:11;;;;;;;17.08;7.30;;;;;;;12.53;96.61;101573.63;5028023;28;20041;-62
2023/07/06 05:00:39;;;;;;;20.08;7.70;;;;;;;12.55;96.46;101572.47;5031650;28;20041;-62
2023/07/06 05:03:09;;;;;;;20.00;8.50;;;;;;;12.56;96.38;101578.63;5017963;28;20030;-63
2023/07/06 05:05:40;;;;;;;20.67;8.45;;;;;;;12.57;96.30;101574.97;5031081;28;20391;-63
2023/07/06 05:08:07;;;;;;;20.52;7.28;;;;;;;12.57;96.35;101575.81;5019245;28;20025;-62
2023/07/06 05:10:34;;;;;;;19.63;8.20;;;;;;;12.61;96.42;101578.97;5027529;28;20030;-63
2023/07/06 05:13:00;;;;;;;17.55;8.05;;;;;;;12.62;96.54;101577.97;5019807;28;20406;-63
2023/07/06 05:15:25;;;;;;;20.58;8.23;;;;;;;12.67;96.70;101584.47;5023362;28;20641;-61
2023/07/06 05:17:52;;;;;;;19.83;8.75;;;;;;;12.73;96.99;101590.97;5023618;28;20028;-63
2023/07/06 05:20:18;;;;;;;23.50;9.50;;;;;;;12.80;97.11;101581.31;5023034;28;20721;-63
2023/07/06 05:22:47;;;;;;;20.50;9.50;;;;;;;12.90;96.88;101586.47;5020872;28;20029;-62
2023/07/06 05:25:12;;;;;;;27.60;10.57;;;;;;;12.93;96.80;101583.47;5023275;28;20083;-62
2023/07/06 05:27:38;;;;;;;19.30;9.90;;;;;;;12.95;96.86;101590.28;5025440;28;20034;-62
2023/07/06 05:30:05;;;;;;;22.02;10.57;;;;;;;12.96;96.75;101593.78;5027343;28;20444;-63
2023/07/06 05:32:30;;;;;;;22.45;10.23;;;;;;;12.98;96.45;101589.94;5022192;28;20021;-62
2023/07/06 05:34:56;;;;;;;29.00;10.90;;;;;;;12.99;96.55;101590.78;5028731;28;20029;-62
2023/07/06 05:37:21;;;;;;;24.95;11.93;;;;;;;13.03;96.85;101598.31;5024458;28;20029;-62
2023/07/06 05:39:46;;;;;;;24.58;12.68;;;;;;;13.08;96.99;101594.28;5028440;28;20079;-62
2023/07/06 05:42:13;;;;;;;28.15;12.05;;;;;;;13.11;96.60;101597.47;5017938;28;20029;-62
2023/07/06 05:44:38;;;;;;;27.25;12.93;;;;;;;13.14;96.92;101599.78;5028337;28;20031;-63
2023/07/06 05:47:03;;;;;;;27.08;12.35;;;;;;;13.17;96.84;101598.59;5027719;28;20100;-62
2023/07/06 05:49:29;;;;;;;21.73;12.65;;;;;;;13.18;96.85;101597.63;5027323;28;20152;-62
2023/07/06 05:51:54;;;;;;;35.75;14.57;;;;;;;13.24;97.19;101599.63;5026118;28;20026;-62
2023/07/06 05:54:19;;;;;;;28.67;14.18;;;;;;;13.29;97.09;101597.28;5018892;28;20022;-62
2023/07/06 05:56:48;;;;;;;26.08;14.23;;;;;;;13.34;97.19;101605.63;5023449;28;20033;-62
2023/07/06 05:59:15;;;;;;;37.28;16.13;;;;;;;13.37;97.56;101599.13;5023981;28;20025;-62
2023/07/06 06:01:40;;;;;;;31.65;15.25;;;;;;;13.41;97.17;101600.44;5021213;28;20033;-62
2023/07/06 06:04:05;;;;;;;35.53;16.50;;;;;;;13.43;97.65;101599.25;5022747;28;20026;-62
2023/07/06 06:06:46;;;;;;;30.40;15.55;;;;;;;13.45;97.70;101601.75;5022242;28;20519;-62
2023/07/06 06:09:12;;;;;;;36.58;16.70;;;;;;;13.52;97.65;101605.41;5021408;28;20040;-62
2023/07/06 06:11:37;;;;;;;34.25;16.15;;;;;;;13.55;97.63;101618.41;5027922;28;20026;-63
2023/07/06 06:14:03;;;;;;;31.77;16.05;;;;;;;13.58;97.93;101618.88;5024448;28;20025;-63
2023/07/06 06:16:28;;;;;;;33.67;16.60;;;;;;;13.61;97.66;101621.25;5019603;28;20025;-63
2023/07/06 06:18:57;;;;;;;30.45;16.70;;;;;;;13.67;97.50;101619.72;5025322;28;20402;-62
2023/07/06 06:21:22;;;;;;;38.75;16.42;;;;;;;13.70;97.56;101635.38;5028030;28;20483;-62
2023/07/06 06:23:48;;;;;;;33.85;16.63;;;;;;;13.76;97.75;101629.34;5024717;28;20029;-63
2023/07/06 06:26:15;;;;;;;34.53;16.75;;;;;;;13.77;97.32;101631.03;5025013;28;20540;-63
2023/07/06 06:28:40;;;;;;;32.33;16.35;;;;;;;13.82;97.51;101630.50;5027617;28;20030;-63
2023/07/06 06:31:05;;;;;;;31.08;16.67;;;;;;;13.85;97.25;101636.31;5025850;28;20025;-63
2023/07/06 06:33:31;;;;;;;31.02;16.30;;;;;;;13.89;97.10;101636.84;5021768;28;20021;-62
2023/07/06 06:35:56;;;;;;;31.92;16.52;;;;;;;13.92;96.86;101647.16;5029125;28;20056;-63
2023/07/06 06:38:21;;;;;;;35.30;16.48;;;;;;;13.99;96.70;101647.31;5026334;28;20091;-63
2023/07/06 06:40:46;;;;;;;30.45;16.30;;;;;;;14.06;97.01;101648.25;5021362;28;20036;-62
2023/07/06 06:43:12;;;;;;;30.55;16.55;;;;;;;14.12;96.39;101658.25;5024538;28;20025;-62
2023/07/06 06:45:38;;;;;;;31.75;16.27;;;;;;;14.22;96.60;101654.38;5022343;28;20462;-62
2023/07/06 06:48:04;;;;;;;31.55;16.70;;;;;;;14.29;96.15;101651.84;5025670;28;20021;-63
2023/07/06 06:50:29;;;;;;;34.53;16.92;;;;;;;14.36;96.24;101654.63;5028329;28;20029;-62
2023/07/06 06:52:54;;;;;;;31.13;16.17;;;;;;;14.43;96.10;101653.78;5022926;28;20025;-63
2023/07/06 06:55:19;;;;;;;34.33;16.48;;;;;;;14.52;95.74;101660.75;5019247;28;20060;-62
2023/07/06 06:57:45;;;;;;;31.85;16.83;;;;;;;14.58;96.02;101659.22;5022334;28;20032;-62
2023/07/06 07:00:14;;;;;;;33.05;16.67;;;;;;;14.64;95.40;101663.03;5026091;28;20031;-62
2023/07/06 07:02:40;;;;;;;28.42;16.75;;;;;;;14.69;94.89;101671.34;5025557;28;20053;-63
2023/07/06 07:05:06;;;;;;;28.33;16.17;;;;;;;14.71;94.83;101672.81;5019399;28;20442;-63
2023/07/06 07:07:34;;;;;;;34.78;16.15;;;;;;;14.70;94.27;101667.66;5016998;28;20493;-63
2023/07/06 07:10:00;;;;;;;31.08;17.00;;;;;;;14.74;94.08;101666.28;5025008;28;20040;-63
2023/07/06 07:12:25;;;;;;;27.25;16.70;;;;;;;14.77;93.78;101674.81;5022736;28;20475;-63
2023/07/06 07:14:50;;;;;;;28.80;15.98;;;;;;;14.81;93.90;101672.59;5026832;28;20505;-63
2023/07/06 07:17:16;;;;;;;32.65;17.50;;;;;;;14.93;93.85;101678.38;5022153;28;20052;-63
2023/07/06 07:19:41;;;;;;;30.00;17.92;;;;;;;14.99;93.76;101677.63;5023048;28;20028;-62
2023/07/06 07:22:06;;;;;;;27.90;17.90;;;;;;;15.05;93.29;101685.81;5025376;28;20040;-63
2023/07/06 07:24:32;;;;;;;31.77;17.23;;;;;;;15.04;92.87;101678.78;5018991;28;20046;-63
2023/07/06 07:26:59;;;;;;;33.42;17.40;;;;;;;15.03;92.66;101682.44;5020417;28;20053;-63
2023/07/06 07:29:24;;;;;;;30.67;17.30;;;;;;;15.11;92.33;101686.94;5020975;28;20022;-63
2023/07/06 07:31:50;;;;;;;38.10;18.25;;;;;;;15.16;92.93;101692.56;5020903;28;20040;-62
2023/07/06 07:34:20;;;;;;;32.03;17.13;;;;;;;15.23;92.38;101692.66;5020436;28;20522;-63
2023/07/06 07:36:46;;;;;;;29.85;16.20;;;;;;;15.25;92.37;101699.50;5022597;28;20025;-63
2023/07/06 07:39:11;;;;;;;34.40;17.52;;;;;;;15.21;91.70;101700.88;5022743;28;20376;-63
2023/07/06 07:41:37;;;;;;;34.05;17.90;;;;;;;15.21;91.73;101695.53;5023092;28;20057;-62
2023/07/06 07:44:03;;;;;;;32.20;19.23;;;;;;;15.25;91.77;101698.69;5026924;28;20022;-63
2023/07/06 07:46:29;;;;;;;34.45;17.95;;;;;;;15.31;91.81;101698.78;5020960;28;20450;-63
2023/07/06 07:48:55;;;;;;;28.55;17.48;;;;;;;15.38;91.58;101701.59;5026573;28;20505;-63
2023/07/06 07:51:24;;;;;;;35.92;17.95;;;;;;;15.41;92.03;101698.53;5019980;28;20034;-62
2023/07/06 07:53:52;;;;;;;29.50;17.70;;;;;;;15.39;91.01;101695.22;5023762;28;20491;-63
2023/07/06 07:56:18;;;;;;;27.27;17.00;;;;;;;15.39;90.89;101706.75;5017006;28;20029;-63
2023/07/06 07:58:46;;;;;;;31.48;16.92;;;;;;;15.36;90.44;101706.28;5025377;28;20033;-63
2023/07/06 08:01:13;;;;;;;32.60;17.08;;;;;;;15.30;90.38;101707.00;5017382;28;20392;-63
2023/07/06 08:03:38;;;;;;;33.15;18.42;;;;;;;15.38;90.57;101704.25;5018615;28;20083;-62
2023/07/06 08:06:06;;;;;;;39.50;18.77;;;;;;;15.58;90.92;101710.78;5014558;28;20050;-62
2023/07/06 08:08:33;;;;;;;26.95;17.35;;;;;;;15.67;90.41;101714.22;5023536;28;20403;-63
2023/07/06 08:11:04;;;;;;;29.25;18.10;;;;;;;15.64;89.27;101711.91;5021790;28;20029;-63
2023/07/06 08:13:29;;;;;;;31.05;18.40;;;;;;;15.57;89.42;101700.22;5019982;28;20075;-63
2023/07/06 08:15:55;;;;;;;38.95;20.00;;;;;;;15.59;88.91;101704.41;5025233;28;20032;-63
2023/07/06 08:18:22;;;;;;;32.60;19.55;;;;;;;15.67;88.98;101704.34;5018226;28;20030;-63
2023/07/06 08:20:53;;;;;;;35.33;20.23;;;;;;;15.79;89.16;101702.88;5022752;28;20025;-63
2023/07/06 08:23:19;;;;;;;33.50;18.63;;;;;;;15.93;88.75;101703.91;5023498;28;20025;-62
2023/07/06 08:25:45;;;;;;;36.65;19.70;;;;;;;16.04;88.71;101710.66;5017928;28;20110;-63
2023/07/06 08:28:12;;;;;;;33.75;19.42;;;;;;;16.05;87.78;101713.13;5022452;28;20148;-62
2023/07/06 08:30:40;;;;;;;29.17;17.75;;;;;;;16.23;87.67;101718.13;5023462;28;20036;-63
2023/07/06 08:33:09;;;;;;;33.03;17.90;;;;;;;16.20;86.88;101721.19;5013526;28;20041;-63
2023/07/06 08:35:39;;;;;;;30.27;16.98;;;;;;;16.26;86.99;101719.59;5007393;28;20280;-63
2023/07/06 08:38:05;;;;;;;31.38;17.85;;;;;;;16.32;86.46;101713.50;5012469;28;20056;-63
2023/07/06 08:40:31;;;;;;;28.30;17.50;;;;;;;16.46;86.21;101722.50;5014008;28;20065;-63
2023/07/06 08:42:59;;;;;;;29.17;17.65;;;;;;;16.52;86.09;101725.31;5018571;28;20390;-63
2023/07/06 08:45:34;;;;;;;22.25;14.95;;;;;;;16.57;85.55;101730.09;5013722;28;20061;-63
2023/07/06 08:48:00;;;;;;;25.17;15.48;;;;;;;16.65;85.09;101728.13;5017081;28;20025;-63
2023/07/06 08:50:31;;;;;;;26.85;15.50;;;;;;;16.66;84.14;101729.81;5015263;28;20040;-63
2023/07/06 08:52:57;;;;;;;28.35;15.23;;;;;;;16.78;83.67;101726.66;5012143;28;20049;-63
2023/07/06 08:55:24;;;;;;;25.02;16.10;;;;;;;16.85;83.37;101730.25;5017305;28;20051;-63
2023/07/06 08:57:51;;;;;;;27.50;16.15;;;;;;;16.95;83.02;101726.22;5015869;28;20522;-63
2023/07/06 09:00:25;;;;;;;29.92;17.23;;;;;;;17.19;83.70;101730.38;5019621;28;20040;-63
2023/07/06 09:02:53;;;;;;;26.10;15.50;;;;;;;17.40;82.97;101736.78;5023699;28;20033;-63
2023/07/06 09:05:20;;;;;;;22.13;14.65;;;;;;;17.60;82.11;101730.50;5026309;28;20057;-63
2023/07/06 09:07:46;;;;;;;23.13;14.85;;;;;;;17.62;80.50;101741.88;5017934;28;20565;-62
2023/07/06 09:10:20;;;;;;;25.65;14.88;;;;;;;17.77;79.80;101741.00;5015294;28;20080;-63
2023/07/06 09:12:45;;;;;;;24.77;13.98;;;;;;;17.85;79.45;101740.84;5020451;28;20038;-63
2023/07/06 09:15:16;;;;;;;20.35;11.30;;;;;;;17.91;77.71;101740.91;5021101;28;20064;-63
2023/07/06 09:17:47;;;;;;;16.67;10.52;;;;;;;18.05;77.66;101739.13;5021663;28;20059;-64
2023/07/06 09:20:15;;;;;;;23.08;11.32;;;;;;;18.11;76.68;101738.34;5021243;28;20063;-63
2023/07/06 09:22:41;;;;;;;18.45;10.57;;;;;;;18.24;75.58;101743.81;5020613;28;20033;-64
2023/07/06 09:25:27;;;;;;;16.88;10.32;;;;;;;18.39;74.70;101748.19;5026734;28;20031;-63
2023/07/06 09:27:55;;;;;;;21.63;10.35;;;;;;;18.50;74.05;101734.16;5024418;28;20491;-63
2023/07/06 09:30:33;;;;;;;18.88;10.23;;;;;;;18.65;73.67;101737.59;5025849;28;20033;-63
2023/07/06 09:33:13;;;;;;;18.55;10.57;;;;;;;18.58;73.00;101734.00;5022236;28;20063;-63
2023/07/06 09:35:39;;;;;;;17.20;10.18;;;;;;;18.51;72.97;101739.38;5022349;28;20030;-63
2023/07/06 09:38:06;;;;;;;18.58;10.65;;;;;;;18.49;73.34;101737.88;5028759;28;20033;-63
2023/07/06 09:40:31;;;;;;;19.90;10.23;;;;;;;18.55;73.66;101742.50;5020810;28;20151;-62
2023/07/06 09:42:57;;;;;;;17.27;9.13;;;;;;;18.55;72.92;101740.63;5031778;28;20108;-63
2023/07/06 09:45:25;;;;;;;20.33;9.70;;;;;;;18.50;72.73;101753.00;5023516;28;20033;-63
2023/07/06 09:47:58;;;;;;;16.60;8.38;;;;;;;18.48;71.65;101749.69;5025820;28;20075;-63
2023/07/06 09:50:35;;;;;;;15.10;8.27;;;;;;;18.61;71.59;101748.91;5025403;28;20079;-63
2023/07/06 09:53:00;;;;;;;17.67;10.32;;;;;;;18.75;72.13;101743.41;5017756;28;20051;-63
2023/07/06 09:55:29;;;;;;;15.98;11.05;;;;;;;18.98;72.81;101748.44;5018334;28;20046;-63
2023/07/06 09:57:56;;;;;;;15.40;10.70;;;;;;;19.06;71.84;101750.94;5017732;28;20014;-64
2023/07/06 10:00:22;;;;;;;17.23;10.85;;;;;;;19.17;72.11;101747.66;5027221;28;20025;-63
2023/07/06 10:03:08;;;;;;;20.50;10.18;;;;;;;19.22;71.38;101747.03;5017975;28;20033;-63
2023/07/06 10:05:55;;;;;;;21.92;10.70;;;;;;;19.34;70.73;101748.06;5022455;28;20029;-63
2023/07/06 10:08:46;;;;;;;15.57;10.02;;;;;;;19.43;70.49;101741.47;5024865;28;20629;-63
2023/07/06 10:11:34;;;;;;;15.18;8.77;;;;;;;19.47;69.95;101748.09;5021947;28;20037;-64
2023/07/06 10:14:32;;;;;;;14.77;7.30;;;;;;;19.55;68.85;101746.25;5021422;28;20053;-64
2023/07/06 10:17:28;;;;;;;11.20;6.30;;;;;;;19.78;68.45;101752.88;5025687;28;20033;-63
2023/07/06 10:20:13;;;;;;;13.63;6.50;;;;;;;19.84;66.58;101735.03;5019140;28;20026;-63
2023/07/06 10:23:15;;;;;;;13.63;6.35;;;;;;;20.04;66.34;101735.00;5020928;28;20025;-63
2023/07/06 10:25:50;;;;;;;11.35;6.00;;;;;;;20.15;65.85;101730.81;5016453;28;20043;-63
2023/07/06 10:28:22;;;;;;;13.57;6.30;;;;;;;20.00;64.95;101731.91;5019272;28;20499;-63
2023/07/06 10:30:51;;;;;;;16.85;6.50;;;;;;;19.90;64.14;101733.34;5019122;28;20562;-64
2023/07/06 10:33:23;;;;;;;11.48;5.80;;;;;;;19.79;63.52;101735.66;5026885;28;20025;-63
2023/07/06 10:35:50;;;;;;;11.00;6.30;;;;;;;19.80;63.48;101731.94;5022344;28;20013;-64
2023/07/06 10:38:21;;;;;;;7.97;4.70;;;;;;;20.07;64.08;101737.28;5023016;28;20026;-64
2023/07/06 10:40:51;;;;;;;5.97;4.20;;;;;;;20.15;61.20;101737.03;5022666;28;20056;-64
2023/07/06 10:43:16;;;;;;;9.90;5.25;;;;;;;20.28;60.80;101734.31;5022274;28;20057;-63
2023/07/06 10:45:51;;;;;;;10.68;4.90;;;;;;;20.28;60.51;101733.50;5027132;28;20025;-63
2023/07/06 10:48:32;;;;;;;10.85;4.72;;;;;;;20.37;60.58;101740.28;5024665;28;20036;-64
2023/07/06 10:51:04;;;;;;;9.60;5.00;;;;;;;20.39;60.29;101746.31;5026678;28;20264;-63
2023/07/06 10:53:34;;;;;;;11.85;5.03;;;;;;;20.40;59.43;101745.28;5020369;28;20029;-63
2023/07/06 10:56:02;;;;;;;8.52;4.20;;;;;;;20.25;58.81;101747.41;5022630;28;20060;-63
2023/07/06 10:58:47;;;;;;;9.40;4.10;;;;;;;20.07;58.72;101738.09;5020595;28;20033;-63
2023/07/06 11:01:19;;;;;;;9.40;3.78;;;;;;;19.88;58.95;101743.53;5022931;28;20143;-64
2023/07/06 11:03:46;;;;;;;8.55;3.47;;;;;;;19.77;58.85;101745.84;5021249;28;20061;-64
2023/07/06 11:06:16;;;;;;;9.95;3.92;;;;;;;19.75;59.73;101749.78;5027605;28;20021;-63
2023/07/06 11:09:10;;;;;;;8.88;3.47;;;;;;;19.82;60.69;101753.28;5026985;28;20061;-64
2023/07/06 11:11:39;;;;;;;7.63;3.35;;;;;;;19.82;61.00;101755.97;5026230;28;20121;-63
2023/07/06 11:14:30;;;;;;;9.05;3.33;;;;;;;19.78;59.88;101762.84;5026065;28;20121;-64
2023/07/06 11:17:02;;;;;;;11.10;3.65;;;;;;;19.87;59.40;101764.25;5022657;28;20051;-64
2023/07/06 11:19:34;;;;;;;8.05;3.22;;;;;;;20.09;59.70;101754.91;5028286;28;20025;-63
2023/07/06 11:22:05;;;;;;;8.50;3.15;;;;;;;20.23;58.89;101766.47;5023055;28;20694;-63